sensor_id;sensor_type;location;lat;lon;timestamp;P1;durP1;ratioP1;P2;durP2;ratioP2
41689;SDS011;27372;42.658;23.256;2023-02-28T00:00:21;30.52;;;17.52;;
41689;SDS011;27372;42.658;23.256;2023-02-28T00:02:47;31.65;;;17.23;;
41689;SDS011;27372;42.658;23.256;2023-02-28T00:05:14;25.70;;;16.45;;
41689;SDS011;27372;42.658;23.256;2023-02-28T00:07:42;26.90;;;15.20;;
41689;SDS011;27372;42.658;23.256;2023-02-28T00:10:09;28.15;;;16.60;;
41689;SDS011;27372;42.658;23.256;2023-02-28T00:12:39;28.65;;;16.15;;
41689;SDS011;27372;42.658;23.256;2023-02-28T00:15:08;27.52;;;17.15;;
41689;SDS011;27372;42.658;23.256;2023-02-28T00:17:36;27.83;;;17.75;;
41689;SDS011;27372;42.658;23.256;2023-02-28T00:20:03;26.73;;;16.33;;
41689;SDS011;27372;42.658;23.256;2023-02-28T00:22:29;21.02;;;12.75;;
41689;SDS011;27372;42.658;23.256;2023-02-28T00:24:55;19.80;;;11.30;;
41689;SDS011;27372;42.658;23.256;2023-02-28T00:27:20;16.05;;;10.00;;
41689;SDS011;27372;42.658;23.256;2023-02-28T00:29:46;13.07;;;8.07;;
41689;SDS011;27372;42.658;23.256;2023-02-28T00:32:12;15.60;;;7.53;;
41689;SDS011;27372;42.658;23.256;2023-02-28T00:34:37;19.02;;;10.80;;
41689;SDS011;27372;42.658;23.256;2023-02-28T00:37:06;17.10;;;10.38;;
41689;SDS011;27372;42.658;23.256;2023-02-28T00:39:36;15.27;;;9.77;;
41689;SDS011;27372;42.658;23.256;2023-02-28T00:42:02;16.60;;;10.13;;
41689;SDS011;27372;42.658;23.256;2023-02-28T00:44:29;21.05;;;13.20;;
41689;SDS011;27372;42.658;23.256;2023-02-28T00:46:55;20.45;;;14.18;;
41689;SDS011;27372;42.658;23.256;2023-02-28T00:49:21;22.48;;;13.90;;
41689;SDS011;27372;42.658;23.256;2023-02-28T00:51:48;23.10;;;13.77;;
41689;SDS011;27372;42.658;23.256;2023-02-28T00:54:13;22.13;;;14.82;;
41689;SDS011;27372;42.658;23.256;2023-02-28T00:56:39;21.63;;;13.80;;
41689;SDS011;27372;42.658;23.256;2023-02-28T00:59:05;23.65;;;14.88;;
41689;SDS011;27372;42.658;23.256;2023-02-28T01:01:30;23.55;;;14.60;;
41689;SDS011;27372;42.658;23.256;2023-02-28T01:03:56;25.98;;;16.65;;
41689;SDS011;27372;42.658;23.256;2023-02-28T01:06:21;25.33;;;16.40;;
41689;SDS011;27372;42.658;23.256;2023-02-28T01:08:47;25.90;;;16.02;;
41689;SDS011;27372;42.658;23.256;2023-02-28T01:11:13;30.00;;;16.33;;
41689;SDS011;27372;42.658;23.256;2023-02-28T01:13:41;26.10;;;16.52;;
41689;SDS011;27372;42.658;23.256;2023-02-28T01:16:07;29.13;;;16.40;;
41689;SDS011;27372;42.658;23.256;2023-02-28T01:18:33;24.63;;;15.98;;
41689;SDS011;27372;42.658;23.256;2023-02-28T01:21:02;24.95;;;16.67;;
41689;SDS011;27372;42.658;23.256;2023-02-28T01:23:39;116.63;;;20.23;;
41689;SDS011;27372;42.658;23.256;2023-02-28T01:26:05;161.77;;;21.83;;
41689;SDS011;27372;42.658;23.256;2023-02-28T01:28:32;325.15;;;25.73;;
41689;SDS011;27372;42.658;23.256;2023-02-28T01:30:57;195.60;;;22.80;;
41689;SDS011;27372;42.658;23.256;2023-02-28T01:33:23;259.00;;;24.00;;
41689;SDS011;27372;42.658;23.256;2023-02-28T01:35:48;180.13;;;22.83;;
41689;SDS011;27372;42.658;23.256;2023-02-28T01:38:14;294.85;;;26.00;;
41689;SDS011;27372;42.658;23.256;2023-02-28T01:40:39;211.38;;;25.48;;
41689;SDS011;27372;42.658;23.256;2023-02-28T01:43:09;51.03;;;21.88;;
41689;SDS011;27372;42.658;23.256;2023-02-28T01:45:45;258.42;;;24.80;;
41689;SDS011;27372;42.658;23.256;2023-02-28T01:48:11;134.25;;;22.83;;
41689;SDS011;27372;42.658;23.256;2023-02-28T01:50:38;66.25;;;21.48;;
41689;SDS011;27372;42.658;23.256;2023-02-28T01:53:10;110.40;;;23.27;;
41689;SDS011;27372;42.658;23.256;2023-02-28T01:55:39;96.22;;;21.67;;
41689;SDS011;27372;42.658;23.256;2023-02-28T01:58:08;114.00;;;22.05;;
41689;SDS011;27372;42.658;23.256;2023-02-28T02:00:34;242.55;;;26.10;;
41689;SDS011;27372;42.658;23.256;2023-02-28T02:03:01;193.23;;;24.90;;
41689;SDS011;27372;42.658;23.256;2023-02-28T02:05:32;208.80;;;24.67;;
41689;SDS011;27372;42.658;23.256;2023-02-28T02:08:03;173.00;;;24.83;;
41689;SDS011;27372;42.658;23.256;2023-02-28T02:10:32;75.43;;;22.35;;
41689;SDS011;27372;42.658;23.256;2023-02-28T02:18:46;195.50;;;24.38;;
41689;SDS011;27372;42.658;23.256;2023-02-28T02:21:37;255.38;;;25.60;;
41689;SDS011;27372;42.658;23.256;2023-02-28T02:40:35;191.13;;;24.38;;
41689;SDS011;27372;42.658;23.256;2023-02-28T02:43:08;102.93;;;24.23;;
41689;SDS011;27372;42.658;23.256;2023-02-28T02:45:42;256.00;;;23.17;;
41689;SDS011;27372;42.658;23.256;2023-02-28T02:48:14;275.92;;;23.05;;
41689;SDS011;27372;42.658;23.256;2023-02-28T02:50:44;407.13;;;23.90;;
41689;SDS011;27372;42.658;23.256;2023-02-28T02:53:14;154.13;;;22.10;;
41689;SDS011;27372;42.658;23.256;2023-02-28T02:55:43;123.07;;;21.05;;
41689;SDS011;27372;42.658;23.256;2023-02-28T02:58:13;112.35;;;20.52;;
41689;SDS011;27372;42.658;23.256;2023-02-28T03:00:46;168.05;;;20.48;;
41689;SDS011;27372;42.658;23.256;2023-02-28T03:03:16;159.65;;;21.15;;
41689;SDS011;27372;42.658;23.256;2023-02-28T03:05:49;198.23;;;22.75;;
41689;SDS011;27372;42.658;23.256;2023-02-28T03:08:15;108.05;;;21.42;;
41689;SDS011;27372;42.658;23.256;2023-02-28T03:10:42;55.67;;;21.90;;
41689;SDS011;27372;42.658;23.256;2023-02-28T03:18:48;137.63;;;31.27;;
41689;SDS011;27372;42.658;23.256;2023-02-28T03:27:09;112.65;;;23.35;;
41689;SDS011;27372;42.658;23.256;2023-02-28T03:29:45;177.57;;;22.38;;
41689;SDS011;27372;42.658;23.256;2023-02-28T03:32:21;182.30;;;21.65;;
41689;SDS011;27372;42.658;23.256;2023-02-28T03:37:46;163.40;;;24.20;;
41689;SDS011;27372;42.658;23.256;2023-02-28T03:40:19;227.85;;;24.23;;
41689;SDS011;27372;42.658;23.256;2023-02-28T03:42:47;188.15;;;23.75;;
41689;SDS011;27372;42.658;23.256;2023-02-28T03:45:36;188.93;;;22.98;;
41689;SDS011;27372;42.658;23.256;2023-02-28T03:48:23;94.32;;;23.75;;
41689;SDS011;27372;42.658;23.256;2023-02-28T03:50:59;303.13;;;26.67;;
41689;SDS011;27372;42.658;23.256;2023-02-28T03:53:34;172.13;;;23.90;;
41689;SDS011;27372;42.658;23.256;2023-02-28T03:58:53;224.20;;;26.40;;
41689;SDS011;27372;42.658;23.256;2023-02-28T04:01:33;259.05;;;24.40;;
41689;SDS011;27372;42.658;23.256;2023-02-28T04:04:06;227.85;;;23.80;;
41689;SDS011;27372;42.658;23.256;2023-02-28T04:06:33;201.75;;;23.55;;
41689;SDS011;27372;42.658;23.256;2023-02-28T04:08:59;82.50;;;22.80;;
41689;SDS011;27372;42.658;23.256;2023-02-28T04:14:18;122.57;;;22.48;;
41689;SDS011;27372;42.658;23.256;2023-02-28T04:16:44;152.95;;;22.30;;
41689;SDS011;27372;42.658;23.256;2023-02-28T04:19:11;76.18;;;21.20;;
41689;SDS011;27372;42.658;23.256;2023-02-28T04:21:38;79.57;;;22.10;;
41689;SDS011;27372;42.658;23.256;2023-02-28T04:24:06;58.78;;;22.92;;
41689;SDS011;27372;42.658;23.256;2023-02-28T04:26:33;50.58;;;22.58;;
41689;SDS011;27372;42.658;23.256;2023-02-28T04:29:01;72.68;;;23.80;;
41689;SDS011;27372;42.658;23.256;2023-02-28T04:31:28;61.15;;;24.67;;
41689;SDS011;27372;42.658;23.256;2023-02-28T04:33:53;103.20;;;27.05;;
41689;SDS011;27372;42.658;23.256;2023-02-28T04:36:19;55.25;;;25.63;;
41689;SDS011;27372;42.658;23.256;2023-02-28T04:38:44;65.10;;;27.65;;
41689;SDS011;27372;42.658;23.256;2023-02-28T04:41:10;95.00;;;29.52;;
41689;SDS011;27372;42.658;23.256;2023-02-28T04:43:36;94.53;;;24.77;;
41689;SDS011;27372;42.658;23.256;2023-02-28T04:46:03;80.32;;;23.50;;
41689;SDS011;27372;42.658;23.256;2023-02-28T04:48:30;89.40;;;22.73;;
41689;SDS011;27372;42.658;23.256;2023-02-28T04:51:00;54.80;;;21.73;;
41689;SDS011;27372;42.658;23.256;2023-02-28T04:53:27;38.97;;;21.13;;
41689;SDS011;27372;42.658;23.256;2023-02-28T04:55:53;87.90;;;25.23;;
41689;SDS011;27372;42.658;23.256;2023-02-28T04:58:19;105.30;;;26.60;;
41689;SDS011;27372;42.658;23.256;2023-02-28T05:00:47;51.47;;;24.42;;
41689;SDS011;27372;42.658;23.256;2023-02-28T05:03:13;59.42;;;26.67;;
41689;SDS011;27372;42.658;23.256;2023-02-28T05:05:38;74.50;;;26.63;;
41689;SDS011;27372;42.658;23.256;2023-02-28T05:08:04;60.05;;;21.33;;
41689;SDS011;27372;42.658;23.256;2023-02-28T05:10:30;45.63;;;21.05;;
41689;SDS011;27372;42.658;23.256;2023-02-28T05:12:56;38.75;;;21.42;;
41689;SDS011;27372;42.658;23.256;2023-02-28T05:15:21;45.33;;;20.13;;
41689;SDS011;27372;42.658;23.256;2023-02-28T05:17:46;41.83;;;19.58;;
41689;SDS011;27372;42.658;23.256;2023-02-28T05:20:12;53.25;;;19.48;;
41689;SDS011;27372;42.658;23.256;2023-02-28T05:22:38;45.75;;;20.60;;
41689;SDS011;27372;42.658;23.256;2023-02-28T05:25:04;68.03;;;26.75;;
41689;SDS011;27372;42.658;23.256;2023-02-28T05:27:31;43.38;;;23.40;;
41689;SDS011;27372;42.658;23.256;2023-02-28T05:29:56;43.83;;;21.85;;
41689;SDS011;27372;42.658;23.256;2023-02-28T05:32:22;41.63;;;20.30;;
41689;SDS011;27372;42.658;23.256;2023-02-28T05:34:47;36.65;;;18.50;;
41689;SDS011;27372;42.658;23.256;2023-02-28T05:37:13;37.40;;;18.58;;
41689;SDS011;27372;42.658;23.256;2023-02-28T05:39:39;46.55;;;19.45;;
41689;SDS011;27372;42.658;23.256;2023-02-28T05:42:05;41.72;;;19.90;;
41689;SDS011;27372;42.658;23.256;2023-02-28T05:44:31;37.92;;;19.13;;
41689;SDS011;27372;42.658;23.256;2023-02-28T05:46:57;41.85;;;17.75;;
41689;SDS011;27372;42.658;23.256;2023-02-28T05:49:22;41.53;;;18.05;;
41689;SDS011;27372;42.658;23.256;2023-02-28T05:51:47;33.90;;;18.13;;
41689;SDS011;27372;42.658;23.256;2023-02-28T05:54:13;33.53;;;17.63;;
41689;SDS011;27372;42.658;23.256;2023-02-28T05:56:38;35.20;;;19.08;;
41689;SDS011;27372;42.658;23.256;2023-02-28T05:59:05;34.53;;;18.45;;
41689;SDS011;27372;42.658;23.256;2023-02-28T06:01:35;33.33;;;18.52;;
41689;SDS011;27372;42.658;23.256;2023-02-28T06:04:04;33.17;;;17.75;;
41689;SDS011;27372;42.658;23.256;2023-02-28T06:06:31;34.45;;;18.85;;
41689;SDS011;27372;42.658;23.256;2023-02-28T06:08:59;36.28;;;19.25;;
41689;SDS011;27372;42.658;23.256;2023-02-28T06:11:25;32.78;;;18.98;;
41689;SDS011;27372;42.658;23.256;2023-02-28T06:13:58;37.75;;;19.33;;
41689;SDS011;27372;42.658;23.256;2023-02-28T06:16:26;38.55;;;19.70;;
41689;SDS011;27372;42.658;23.256;2023-02-28T06:18:53;35.60;;;18.70;;
41689;SDS011;27372;42.658;23.256;2023-02-28T06:21:21;32.60;;;17.77;;
41689;SDS011;27372;42.658;23.256;2023-02-28T06:23:46;33.20;;;17.02;;
41689;SDS011;27372;42.658;23.256;2023-02-28T06:26:12;31.83;;;17.77;;
41689;SDS011;27372;42.658;23.256;2023-02-28T06:28:37;33.67;;;17.83;;
41689;SDS011;27372;42.658;23.256;2023-02-28T06:31:12;34.05;;;18.27;;
41689;SDS011;27372;42.658;23.256;2023-02-28T06:33:40;39.30;;;19.23;;
41689;SDS011;27372;42.658;23.256;2023-02-28T06:36:06;37.65;;;19.08;;
41689;SDS011;27372;42.658;23.256;2023-02-28T06:38:32;33.45;;;19.23;;
41689;SDS011;27372;42.658;23.256;2023-02-28T06:40:59;36.45;;;18.52;;
41689;SDS011;27372;42.658;23.256;2023-02-28T06:43:27;33.33;;;18.63;;
41689;SDS011;27372;42.658;23.256;2023-02-28T06:45:57;32.53;;;19.77;;
41689;SDS011;27372;42.658;23.256;2023-02-28T06:48:25;36.58;;;19.80;;
41689;SDS011;27372;42.658;23.256;2023-02-28T06:50:51;36.55;;;20.40;;
41689;SDS011;27372;42.658;23.256;2023-02-28T06:53:16;35.70;;;20.20;;
41689;SDS011;27372;42.658;23.256;2023-02-28T06:55:42;34.97;;;19.70;;
41689;SDS011;27372;42.658;23.256;2023-02-28T06:58:07;37.70;;;20.67;;
41689;SDS011;27372;42.658;23.256;2023-02-28T07:00:40;38.47;;;21.13;;
41689;SDS011;27372;42.658;23.256;2023-02-28T07:03:07;36.72;;;21.30;;
41689;SDS011;27372;42.658;23.256;2023-02-28T07:05:34;39.00;;;22.35;;
41689;SDS011;27372;42.658;23.256;2023-02-28T07:08:00;41.03;;;22.63;;
41689;SDS011;27372;42.658;23.256;2023-02-28T07:10:25;41.53;;;23.83;;
41689;SDS011;27372;42.658;23.256;2023-02-28T07:12:51;50.33;;;30.77;;
41689;SDS011;27372;42.658;23.256;2023-02-28T07:15:16;47.85;;;26.10;;
41689;SDS011;27372;42.658;23.256;2023-02-28T07:17:41;46.40;;;25.33;;
41689;SDS011;27372;42.658;23.256;2023-02-28T07:20:07;46.58;;;26.05;;
41689;SDS011;27372;42.658;23.256;2023-02-28T07:22:33;55.47;;;28.83;;
41689;SDS011;27372;42.658;23.256;2023-02-28T07:24:58;60.17;;;29.55;;
41689;SDS011;27372;42.658;23.256;2023-02-28T07:27:24;59.92;;;30.30;;
41689;SDS011;27372;42.658;23.256;2023-02-28T07:29:50;62.13;;;30.20;;
41689;SDS011;27372;42.658;23.256;2023-02-28T07:32:16;63.17;;;31.02;;
41689;SDS011;27372;42.658;23.256;2023-02-28T07:34:41;62.78;;;31.27;;
41689;SDS011;27372;42.658;23.256;2023-02-28T07:37:07;66.93;;;31.83;;
41689;SDS011;27372;42.658;23.256;2023-02-28T07:39:35;66.60;;;33.60;;
41689;SDS011;27372;42.658;23.256;2023-02-28T07:45:24;68.15;;;33.97;;
41689;SDS011;27372;42.658;23.256;2023-02-28T07:47:49;68.53;;;33.00;;
41689;SDS011;27372;42.658;23.256;2023-02-28T07:50:14;68.20;;;33.20;;
41689;SDS011;27372;42.658;23.256;2023-02-28T07:52:40;72.65;;;33.35;;
41689;SDS011;27372;42.658;23.256;2023-02-28T07:55:07;72.78;;;34.05;;
41689;SDS011;27372;42.658;23.256;2023-02-28T07:57:33;70.65;;;34.15;;
41689;SDS011;27372;42.658;23.256;2023-02-28T07:59:58;80.35;;;35.17;;
41689;SDS011;27372;42.658;23.256;2023-02-28T08:02:24;76.00;;;35.08;;
41689;SDS011;27372;42.658;23.256;2023-02-28T08:04:49;70.60;;;34.17;;
41689;SDS011;27372;42.658;23.256;2023-02-28T08:07:16;77.03;;;34.08;;
41689;SDS011;27372;42.658;23.256;2023-02-28T08:09:42;82.00;;;35.55;;
41689;SDS011;27372;42.658;23.256;2023-02-28T08:12:09;74.90;;;34.35;;
41689;SDS011;27372;42.658;23.256;2023-02-28T08:14:36;79.22;;;35.60;;
41689;SDS011;27372;42.658;23.256;2023-02-28T08:17:02;88.03;;;37.38;;
41689;SDS011;27372;42.658;23.256;2023-02-28T08:19:28;85.30;;;35.97;;
41689;SDS011;27372;42.658;23.256;2023-02-28T08:21:54;84.55;;;36.35;;
41689;SDS011;27372;42.658;23.256;2023-02-28T08:24:20;81.70;;;36.20;;
41689;SDS011;27372;42.658;23.256;2023-02-28T08:26:46;84.35;;;37.20;;
41689;SDS011;27372;42.658;23.256;2023-02-28T08:29:11;86.45;;;38.38;;
41689;SDS011;27372;42.658;23.256;2023-02-28T08:31:37;87.78;;;37.85;;
41689;SDS011;27372;42.658;23.256;2023-02-28T08:34:06;86.65;;;36.65;;
41689;SDS011;27372;42.658;23.256;2023-02-28T08:36:33;82.05;;;37.05;;
41689;SDS011;27372;42.658;23.256;2023-02-28T08:38:58;76.72;;;35.75;;
41689;SDS011;27372;42.658;23.256;2023-02-28T08:41:24;79.13;;;35.85;;
41689;SDS011;27372;42.658;23.256;2023-02-28T08:43:51;83.60;;;36.42;;
41689;SDS011;27372;42.658;23.256;2023-02-28T08:46:16;88.28;;;38.35;;
41689;SDS011;27372;42.658;23.256;2023-02-28T08:48:42;82.32;;;36.35;;
41689;SDS011;27372;42.658;23.256;2023-02-28T08:51:09;83.22;;;36.03;;
41689;SDS011;27372;42.658;23.256;2023-02-28T08:53:37;78.50;;;34.75;;
41689;SDS011;27372;42.658;23.256;2023-02-28T08:56:05;74.72;;;35.13;;
41689;SDS011;27372;42.658;23.256;2023-02-28T08:58:32;77.90;;;34.90;;
41689;SDS011;27372;42.658;23.256;2023-02-28T09:00:59;70.13;;;34.28;;
41689;SDS011;27372;42.658;23.256;2023-02-28T09:03:25;67.93;;;32.72;;
41689;SDS011;27372;42.658;23.256;2023-02-28T09:05:55;72.72;;;33.80;;
41689;SDS011;27372;42.658;23.256;2023-02-28T09:08:23;71.43;;;33.80;;
41689;SDS011;27372;42.658;23.256;2023-02-28T09:10:49;78.57;;;34.95;;
41689;SDS011;27372;42.658;23.256;2023-02-28T09:13:15;68.13;;;33.28;;
41689;SDS011;27372;42.658;23.256;2023-02-28T09:15:41;78.03;;;35.80;;
41689;SDS011;27372;42.658;23.256;2023-02-28T09:18:07;72.85;;;33.92;;
41689;SDS011;27372;42.658;23.256;2023-02-28T09:20:32;73.43;;;32.38;;
41689;SDS011;27372;42.658;23.256;2023-02-28T09:22:57;79.10;;;34.83;;
41689;SDS011;27372;42.658;23.256;2023-02-28T09:25:23;71.95;;;35.03;;
41689;SDS011;27372;42.658;23.256;2023-02-28T09:27:48;78.72;;;37.70;;
41689;SDS011;27372;42.658;23.256;2023-02-28T09:30:14;76.72;;;36.53;;
41689;SDS011;27372;42.658;23.256;2023-02-28T09:32:39;75.07;;;36.22;;
41689;SDS011;27372;42.658;23.256;2023-02-28T09:35:05;74.25;;;36.67;;
41689;SDS011;27372;42.658;23.256;2023-02-28T09:37:31;69.05;;;35.83;;
41689;SDS011;27372;42.658;23.256;2023-02-28T09:39:57;77.47;;;38.40;;
41689;SDS011;27372;42.658;23.256;2023-02-28T09:42:25;76.13;;;37.70;;
41689;SDS011;27372;42.658;23.256;2023-02-28T09:44:56;75.20;;;36.25;;
41689;SDS011;27372;42.658;23.256;2023-02-28T09:50:05;74.20;;;35.47;;
41689;SDS011;27372;42.658;23.256;2023-02-28T09:52:42;78.40;;;37.67;;
41689;SDS011;27372;42.658;23.256;2023-02-28T09:55:22;80.22;;;38.33;;
41689;SDS011;27372;42.658;23.256;2023-02-28T09:57:50;76.35;;;36.75;;
41689;SDS011;27372;42.658;23.256;2023-02-28T10:00:24;75.68;;;37.25;;
41689;SDS011;27372;42.658;23.256;2023-02-28T10:05:30;74.93;;;35.97;;
41689;SDS011;27372;42.658;23.256;2023-02-28T10:08:07;69.55;;;34.13;;
41689;SDS011;27372;42.658;23.256;2023-02-28T10:10:39;66.75;;;33.17;;
41689;SDS011;27372;42.658;23.256;2023-02-28T10:15:45;59.92;;;32.50;;
41689;SDS011;27372;42.658;23.256;2023-02-28T10:18:16;62.60;;;31.45;;
41689;SDS011;27372;42.658;23.256;2023-02-28T10:20:49;60.22;;;30.75;;
41689;SDS011;27372;42.658;23.256;2023-02-28T10:23:20;64.07;;;31.00;;
41689;SDS011;27372;42.658;23.256;2023-02-28T10:25:54;65.57;;;32.55;;
41689;SDS011;27372;42.658;23.256;2023-02-28T10:30:52;63.13;;;31.42;;
41689;SDS011;27372;42.658;23.256;2023-02-28T10:33:21;58.20;;;30.58;;
41689;SDS011;27372;42.658;23.256;2023-02-28T10:35:54;57.80;;;31.95;;
41689;SDS011;27372;42.658;23.256;2023-02-28T10:38:21;61.63;;;31.83;;
41689;SDS011;27372;42.658;23.256;2023-02-28T10:40:50;55.17;;;31.25;;
41689;SDS011;27372;42.658;23.256;2023-02-28T10:45:53;57.53;;;29.27;;
41689;SDS011;27372;42.658;23.256;2023-02-28T10:55:59;41.17;;;21.13;;
41689;SDS011;27372;42.658;23.256;2023-02-28T11:01:41;32.08;;;14.65;;
41689;SDS011;27372;42.658;23.256;2023-02-28T11:09:45;29.23;;;13.48;;
41689;SDS011;27372;42.658;23.256;2023-02-28T11:12:21;39.28;;;13.77;;
41689;SDS011;27372;42.658;23.256;2023-02-28T11:14:47;30.83;;;13.00;;
41689;SDS011;27372;42.658;23.256;2023-02-28T11:17:20;24.08;;;12.48;;
41689;SDS011;27372;42.658;23.256;2023-02-28T11:19:49;36.58;;;14.02;;
41689;SDS011;27372;42.658;23.256;2023-02-28T11:22:19;30.15;;;13.02;;
41689;SDS011;27372;42.658;23.256;2023-02-28T11:24:49;26.45;;;13.40;;
41689;SDS011;27372;42.658;23.256;2023-02-28T11:29:56;29.90;;;12.93;;
41689;SDS011;27372;42.658;23.256;2023-02-28T11:32:28;29.98;;;12.95;;
41689;SDS011;27372;42.658;23.256;2023-02-28T11:35:03;29.00;;;13.75;;
41689;SDS011;27372;42.658;23.256;2023-02-28T11:37:39;31.90;;;13.80;;
41689;SDS011;27372;42.658;23.256;2023-02-28T11:40:14;27.27;;;13.45;;
41689;SDS011;27372;42.658;23.256;2023-02-28T11:45:21;25.23;;;13.43;;
41689;SDS011;27372;42.658;23.256;2023-02-28T11:48:07;27.83;;;13.60;;
41689;SDS011;27372;42.658;23.256;2023-02-28T11:50:49;27.45;;;13.55;;
41689;SDS011;27372;42.658;23.256;2023-02-28T11:53:29;26.05;;;13.80;;
41689;SDS011;27372;42.658;23.256;2023-02-28T11:56:19;31.77;;;13.27;;
41689;SDS011;27372;42.658;23.256;2023-02-28T12:04:30;25.95;;;13.60;;
41689;SDS011;27372;42.658;23.256;2023-02-28T12:07:42;25.65;;;14.15;;
41689;SDS011;27372;42.658;23.256;2023-02-28T12:21:07;26.08;;;12.95;;
41689;SDS011;27372;42.658;23.256;2023-02-28T12:24:05;31.60;;;14.70;;
41689;SDS011;27372;42.658;23.256;2023-02-28T12:26:45;23.75;;;11.70;;
41689;SDS011;27372;42.658;23.256;2023-02-28T12:29:29;20.45;;;10.35;;
41689;SDS011;27372;42.658;23.256;2023-02-28T12:32:01;22.50;;;10.55;;
41689;SDS011;27372;42.658;23.256;2023-02-28T12:34:32;26.85;;;10.73;;
41689;SDS011;27372;42.658;23.256;2023-02-28T12:37:04;23.95;;;10.75;;
41689;SDS011;27372;42.658;23.256;2023-02-28T12:39:40;25.02;;;10.43;;
41689;SDS011;27372;42.658;23.256;2023-02-28T12:42:13;24.30;;;11.68;;
41689;SDS011;27372;42.658;23.256;2023-02-28T12:44:52;30.45;;;12.20;;
41689;SDS011;27372;42.658;23.256;2023-02-28T12:47:24;30.27;;;13.73;;
41689;SDS011;27372;42.658;23.256;2023-02-28T12:49:51;26.42;;;13.73;;
41689;SDS011;27372;42.658;23.256;2023-02-28T12:52:24;28.17;;;14.88;;
41689;SDS011;27372;42.658;23.256;2023-02-28T12:55:00;42.42;;;14.68;;
41689;SDS011;27372;42.658;23.256;2023-02-28T13:00:19;33.60;;;13.38;;
41689;SDS011;27372;42.658;23.256;2023-02-28T13:10:53;32.92;;;14.38;;
41689;SDS011;27372;42.658;23.256;2023-02-28T13:13:25;34.53;;;14.00;;
41689;SDS011;27372;42.658;23.256;2023-02-28T13:18:45;28.65;;;11.85;;
41689;SDS011;27372;42.658;23.256;2023-02-28T13:21:28;37.08;;;14.25;;
41689;SDS011;27372;42.658;23.256;2023-02-28T13:34:31;32.67;;;12.57;;
41689;SDS011;27372;42.658;23.256;2023-02-28T13:47:38;31.95;;;13.15;;
41689;SDS011;27372;42.658;23.256;2023-02-28T14:06:30;28.75;;;11.55;;
41689;SDS011;27372;42.658;23.256;2023-02-28T14:11:33;35.00;;;12.18;;
41689;SDS011;27372;42.658;23.256;2023-02-28T14:14:01;24.17;;;11.40;;
41689;SDS011;27372;42.658;23.256;2023-02-28T14:16:35;31.60;;;11.07;;
41689;SDS011;27372;42.658;23.256;2023-02-28T14:19:14;30.23;;;11.48;;
41689;SDS011;27372;42.658;23.256;2023-02-28T14:27:58;30.75;;;11.68;;
41689;SDS011;27372;42.658;23.256;2023-02-28T14:33:18;27.10;;;10.15;;
41689;SDS011;27372;42.658;23.256;2023-02-28T14:36:01;31.25;;;12.18;;
41689;SDS011;27372;42.658;23.256;2023-02-28T14:38:32;25.20;;;10.23;;
41689;SDS011;27372;42.658;23.256;2023-02-28T14:41:06;24.15;;;9.43;;
41689;SDS011;27372;42.658;23.256;2023-02-28T14:43:47;28.02;;;10.55;;
41689;SDS011;27372;42.658;23.256;2023-02-28T14:46:21;27.23;;;10.18;;
41689;SDS011;27372;42.658;23.256;2023-02-28T14:48:50;24.95;;;11.20;;
41689;SDS011;27372;42.658;23.256;2023-02-28T14:51:20;29.58;;;10.40;;
41689;SDS011;27372;42.658;23.256;2023-02-28T14:53:49;28.50;;;12.18;;
41689;SDS011;27372;42.658;23.256;2023-02-28T14:56:25;24.60;;;10.88;;
41689;SDS011;27372;42.658;23.256;2023-02-28T14:59:02;27.10;;;10.80;;
41689;SDS011;27372;42.658;23.256;2023-02-28T15:01:29;25.50;;;10.63;;
41689;SDS011;27372;42.658;23.256;2023-02-28T15:04:05;28.45;;;10.40;;
41689;SDS011;27372;42.658;23.256;2023-02-28T15:06:39;27.70;;;11.13;;
41689;SDS011;27372;42.658;23.256;2023-02-28T15:09:14;27.77;;;10.35;;
41689;SDS011;27372;42.658;23.256;2023-02-28T15:11:44;25.58;;;10.65;;
41689;SDS011;27372;42.658;23.256;2023-02-28T15:14:19;26.10;;;10.80;;
41689;SDS011;27372;42.658;23.256;2023-02-28T15:16:49;30.45;;;11.32;;
41689;SDS011;27372;42.658;23.256;2023-02-28T15:19:28;30.85;;;10.80;;
41689;SDS011;27372;42.658;23.256;2023-02-28T15:21:57;22.15;;;11.70;;
41689;SDS011;27372;42.658;23.256;2023-02-28T15:24:37;29.48;;;12.63;;
41689;SDS011;27372;42.658;23.256;2023-02-28T15:27:51;31.92;;;11.57;;
41689;SDS011;27372;42.658;23.256;2023-02-28T15:30:05;23.85;;;10.02;;
41689;SDS011;27372;42.658;23.256;2023-02-28T15:32:34;25.90;;;10.43;;
41689;SDS011;27372;42.658;23.256;2023-02-28T15:40:23;30.30;;;13.02;;
41689;SDS011;27372;42.658;23.256;2023-02-28T15:45:44;30.42;;;13.00;;
41689;SDS011;27372;42.658;23.256;2023-02-28T15:50:53;31.38;;;11.75;;
41689;SDS011;27372;42.658;23.256;2023-02-28T15:53:22;23.25;;;11.10;;
41689;SDS011;27372;42.658;23.256;2023-02-28T15:55:56;25.30;;;11.13;;
41689;SDS011;27372;42.658;23.256;2023-02-28T15:58:26;20.55;;;10.65;;
41689;SDS011;27372;42.658;23.256;2023-02-28T16:03:46;27.73;;;11.85;;
41689;SDS011;27372;42.658;23.256;2023-02-28T16:06:21;24.25;;;12.07;;
41689;SDS011;27372;42.658;23.256;2023-02-28T16:09:13;21.40;;;11.50;;
41689;SDS011;27372;42.658;23.256;2023-02-28T16:11:45;20.00;;;10.48;;
41689;SDS011;27372;42.658;23.256;2023-02-28T16:14:14;20.40;;;10.60;;
41689;SDS011;27372;42.658;23.256;2023-02-28T16:16:42;21.17;;;9.77;;
41689;SDS011;27372;42.658;23.256;2023-02-28T16:19:09;16.85;;;9.60;;
41689;SDS011;27372;42.658;23.256;2023-02-28T16:21:35;26.33;;;12.52;;
41689;SDS011;27372;42.658;23.256;2023-02-28T16:24:01;20.85;;;11.02;;
41689;SDS011;27372;42.658;23.256;2023-02-28T16:26:26;20.90;;;10.05;;
41689;SDS011;27372;42.658;23.256;2023-02-28T16:28:53;14.60;;;8.77;;
41689;SDS011;27372;42.658;23.256;2023-02-28T16:31:19;20.15;;;10.45;;
41689;SDS011;27372;42.658;23.256;2023-02-28T16:33:45;16.45;;;9.93;;
41689;SDS011;27372;42.658;23.256;2023-02-28T16:36:15;20.52;;;10.40;;
41689;SDS011;27372;42.658;23.256;2023-02-28T16:38:46;21.00;;;9.63;;
41689;SDS011;27372;42.658;23.256;2023-02-28T16:41:12;16.13;;;9.75;;
41689;SDS011;27372;42.658;23.256;2023-02-28T16:43:43;18.95;;;9.88;;
41689;SDS011;27372;42.658;23.256;2023-02-28T16:46:13;17.00;;;9.43;;
41689;SDS011;27372;42.658;23.256;2023-02-28T16:48:39;19.30;;;10.20;;
41689;SDS011;27372;42.658;23.256;2023-02-28T16:51:06;14.18;;;8.48;;
41689;SDS011;27372;42.658;23.256;2023-02-28T16:53:36;14.07;;;8.55;;
41689;SDS011;27372;42.658;23.256;2023-02-28T16:56:02;16.45;;;9.02;;
41689;SDS011;27372;42.658;23.256;2023-02-28T16:58:29;16.48;;;9.38;;
41689;SDS011;27372;42.658;23.256;2023-02-28T17:00:55;16.58;;;9.13;;
41689;SDS011;27372;42.658;23.256;2023-02-28T17:03:22;17.35;;;8.82;;
41689;SDS011;27372;42.658;23.256;2023-02-28T17:05:49;15.32;;;8.27;;
41689;SDS011;27372;42.658;23.256;2023-02-28T17:08:14;13.68;;;8.18;;
41689;SDS011;27372;42.658;23.256;2023-02-28T17:10:41;18.00;;;8.80;;
41689;SDS011;27372;42.658;23.256;2023-02-28T17:13:07;16.40;;;8.18;;